KHOU/HOU METAR and TAF weather

Enter ICAO airport designator
Station Type Date Time Source
KHOU METAR 2022/06/28 23:53 UTC NOAA

KHOU 282353Z 06014G21KT 10SM FEW065 SCT160 BKN250 34/17 A2999 RMK AO2 SLP160 T03440172 10356 20322 55005


Station Type Date Time Source
KHOU Decoded METAR 2022/06/28 23:53 UTC NOAA

HOUSTON HOBBY AIRPORT, TX, United States (KHOU) 29-38N 095-17W 36M
Jun 28, 2022 - 07:53 PM EDT / 2022.06.28 2353 UTC
Wind: from the ENE (060 degrees) at 16 MPH (14 KT) gusting to 24 MPH (21 KT):0
Visibility: 10 mile(s):0
Sky conditions: mostly cloudy
Temperature: 93.9 F (34.4 C)
Heat index: 95.2 F (35.1 C):1
Dew Point: 63.0 F (17.2 C)
Relative Humidity: 36%
Pressure (altimeter): 29.99 in. Hg (1015 hPa)
Pressure tendency: 0.01 inches (0.5 hPa) lower than three hours ago
ob: KHOU 282353Z 06014G21KT 10SM FEW065 SCT160 BKN250 34/17 A2999 RMK AO2 SLP160 T03440172 10356 20322 55005
cycle: 0

Station Type Date Time Source
KHOU TAF 2022/06/28 22:15 UTC NOAA

TAF
AMD KHOU 282213Z 2822/2918 07012KT P6SM VCSH FEW050 SCT060 BKN250
TEMPO 2822/2823 -SHRA
FM290000 10008KT P6SM SCT060 BKN250
FM290300 VRB03KT P6SM SCT060 BKN150
FM291500 07008KT P6SM VCSH SCT040 BKN060

Example: see airport list